createdAt,value
2022-09-07T00:00:06.228Z,17.32
2022-09-07T00:02:07.729Z,17.33
2022-09-07T00:04:09.626Z,17.33
2022-09-07T00:06:12.801Z,17.34
2022-09-07T00:08:15.837Z,17.33
2022-09-07T00:10:17.544Z,17.31
2022-09-07T00:12:19.056Z,17.30
2022-09-07T00:14:20.785Z,17.30
2022-09-07T00:16:25.678Z,17.30
2022-09-07T00:18:27.298Z,17.28
2022-09-07T00:20:28.879Z,17.30
2022-09-07T00:22:30.424Z,17.30
2022-09-07T00:24:31.997Z,17.31
2022-09-07T00:26:33.522Z,17.31
2022-09-07T00:28:36.092Z,17.31
2022-09-07T00:30:41.961Z,17.30
2022-09-07T00:32:43.493Z,17.30
2022-09-07T00:34:45.023Z,17.29
2022-09-07T00:36:46.534Z,17.28
2022-09-07T00:38:48.410Z,17.26
2022-09-07T00:40:50.019Z,17.26
2022-09-07T00:42:51.546Z,17.25
2022-09-07T00:45:16.027Z,17.23
2022-09-07T00:47:46.203Z,17.23
2022-09-07T00:49:53.889Z,17.23
2022-09-07T00:52:02.241Z,17.23
2022-09-07T00:54:10.569Z,17.25
2022-09-07T00:56:13.111Z,17.24
2022-09-07T00:58:15.891Z,17.24
2022-09-07T01:00:17.656Z,17.24
2022-09-07T01:02:20.927Z,17.24
2022-09-07T01:04:23.595Z,17.25
2022-09-07T01:06:29.621Z,17.26
2022-09-07T01:08:31.780Z,17.26
2022-09-07T01:10:34.585Z,17.25
2022-09-07T01:12:36.095Z,17.25
2022-09-07T01:14:43.027Z,17.26
2022-09-07T01:17:04.673Z,17.24
2022-09-07T01:19:45.693Z,17.23
2022-09-07T01:21:53.104Z,17.24
2022-09-07T01:24:20.998Z,17.24
2022-09-07T01:26:37.661Z,17.23
2022-09-07T01:28:39.744Z,17.21
2022-09-07T01:30:51.638Z,17.22
2022-09-07T01:33:02.310Z,17.21
2022-09-07T01:35:12.232Z,17.22
2022-09-07T01:37:32.159Z,17.19
2022-09-07T01:39:56.665Z,17.17
2022-09-07T01:42:03.640Z,17.19
2022-09-07T01:44:18.220Z,17.16
2022-09-07T01:46:31.818Z,17.14
2022-09-07T01:48:36.346Z,17.14
2022-09-07T01:50:45.608Z,17.15
2022-09-07T01:52:59.146Z,17.12
2022-09-07T01:55:13.800Z,17.09
2022-09-07T01:57:27.111Z,17.08
2022-09-07T01:59:40.471Z,17.07
2022-09-07T02:01:49.764Z,17.07
2022-09-07T02:04:00.437Z,17.08
2022-09-07T02:06:11.042Z,17.07
2022-09-07T02:08:25.431Z,17.07
2022-09-07T02:10:36.998Z,17.07
2022-09-07T02:12:49.923Z,17.05
2022-09-07T02:14:57.247Z,17.06
2022-09-07T02:17:04.830Z,17.07
2022-09-07T02:19:12.805Z,17.05
2022-09-07T02:21:19.523Z,17.05
2022-09-07T02:23:26.014Z,17.05
2022-09-07T02:25:32.980Z,17.05
2022-09-07T02:27:43.856Z,17.05
2022-09-07T02:29:45.458Z,17.05
2022-09-07T02:31:47.465Z,17.05
2022-09-07T02:33:49.696Z,17.05
2022-09-07T02:35:52.056Z,17.08
2022-09-07T02:37:53.672Z,17.07
2022-09-07T02:39:55.393Z,17.07
2022-09-07T02:41:57.000Z,17.07
2022-09-07T02:43:59.149Z,17.06
2022-09-07T02:46:31.099Z,17.07
2022-09-07T02:48:38.803Z,17.09
2022-09-07T02:51:07.815Z,17.09
2022-09-07T02:53:47.574Z,17.08
2022-09-07T02:56:08.015Z,17.04
2022-09-07T02:58:31.729Z,17.01
2022-09-07T03:00:45.022Z,17.01
2022-09-07T03:03:04.826Z,16.99
2022-09-07T03:05:33.517Z,17.01
2022-09-07T03:07:45.280Z,17.01
2022-09-07T03:09:49.535Z,17.03
2022-09-07T03:11:51.840Z,17.04
2022-09-07T03:13:53.365Z,17.06
2022-09-07T03:15:56.353Z,17.05
2022-09-07T03:17:58.103Z,17.05
2022-09-07T03:20:00.187Z,17.05
2022-09-07T03:22:02.160Z,17.02
2022-09-07T03:24:03.929Z,16.99
2022-09-07T03:26:05.695Z,16.94
2022-09-07T03:28:07.522Z,16.90
2022-09-07T03:30:10.846Z,16.88
2022-09-07T03:32:12.399Z,16.83
2022-09-07T03:34:14.650Z,16.78
2022-09-07T03:36:16.249Z,16.75
2022-09-07T03:38:17.764Z,16.76
2022-09-07T03:40:19.418Z,16.74
2022-09-07T03:42:21.730Z,16.72
2022-09-07T03:44:23.302Z,16.74
2022-09-07T03:46:24.863Z,16.76
2022-09-07T03:48:28.177Z,16.80
2022-09-07T03:50:29.694Z,16.80
2022-09-07T03:52:31.362Z,16.80
2022-09-07T03:54:36.663Z,16.79
2022-09-07T03:56:40.523Z,16.78
2022-09-07T03:58:42.356Z,16.74
2022-09-07T04:00:43.888Z,16.69
2022-09-07T04:02:45.437Z,16.57
2022-09-07T04:04:47.239Z,16.54
2022-09-07T04:06:48.847Z,16.48
2022-09-07T04:08:50.515Z,16.47
2022-09-07T04:10:52.369Z,16.44
2022-09-07T04:12:53.863Z,16.43
2022-09-07T04:14:55.738Z,16.45
2022-09-07T04:16:57.465Z,16.44
2022-09-07T04:18:59.350Z,16.45
2022-09-07T04:21:00.940Z,16.46
2022-09-07T04:23:02.468Z,16.48
2022-09-07T04:25:04.191Z,16.48
2022-09-07T04:27:05.764Z,16.47
2022-09-07T04:29:08.674Z,16.46
2022-09-07T04:31:10.495Z,16.47
2022-09-07T04:33:13.299Z,16.48
2022-09-07T04:35:15.137Z,16.48
2022-09-07T04:37:16.731Z,16.49
2022-09-07T04:39:18.342Z,16.47
2022-09-07T04:41:19.981Z,16.48
2022-09-07T04:43:21.477Z,16.48
2022-09-07T04:45:22.970Z,16.49
2022-09-07T04:47:25.205Z,16.50
2022-09-07T04:49:26.707Z,16.48
2022-09-07T04:51:30.748Z,16.49
2022-09-07T04:53:33.469Z,16.51
2022-09-07T04:55:34.973Z,16.50
2022-09-07T04:57:36.579Z,16.47
2022-09-07T04:59:38.118Z,16.51
2022-09-07T05:01:40.019Z,16.53
2022-09-07T05:03:41.599Z,16.53
2022-09-07T05:05:43.110Z,16.52
2022-09-07T05:07:44.765Z,16.47
2022-09-07T05:09:47.196Z,16.39
2022-09-07T05:11:48.948Z,16.31
2022-09-07T05:13:51.006Z,16.33
2022-09-07T05:15:52.529Z,16.33
2022-09-07T05:17:54.076Z,16.33
2022-09-07T05:19:55.579Z,16.33
2022-09-07T05:21:57.787Z,16.30
2022-09-07T05:24:00.577Z,16.33
2022-09-07T05:26:02.093Z,16.34
2022-09-07T05:28:04.172Z,16.37
2022-09-07T05:30:06.585Z,16.39
2022-09-07T05:32:09.237Z,16.39
2022-09-07T05:36:33.361Z,16.40
2022-09-07T05:38:36.835Z,16.41
2022-09-07T05:40:40.724Z,16.38
2022-09-07T05:42:42.504Z,16.35
2022-09-07T05:44:45.181Z,16.34
2022-09-07T05:46:47.139Z,16.37
2022-09-07T05:48:48.675Z,16.38
2022-09-07T05:50:52.107Z,16.38
2022-09-07T05:52:53.829Z,16.38
2022-09-07T05:55:07.406Z,16.38
2022-09-07T05:57:16.843Z,16.37
2022-09-07T05:59:18.333Z,16.39
2022-09-07T06:01:19.854Z,16.38
2022-09-07T06:03:21.429Z,16.39
2022-09-07T06:05:23.049Z,16.40
2022-09-07T06:07:24.552Z,16.41
2022-09-07T06:09:30.244Z,16.41
2022-09-07T06:11:32.120Z,16.42
2022-09-07T06:13:34.214Z,16.43
2022-09-07T06:15:35.737Z,16.44
2022-09-07T06:17:37.277Z,16.44
2022-09-07T06:19:38.793Z,16.47
2022-09-07T06:21:40.389Z,16.49
2022-09-07T06:23:43.506Z,16.49
2022-09-07T06:25:49.781Z,16.49
2022-09-07T06:27:51.984Z,16.48
2022-09-07T06:29:53.483Z,16.46
2022-09-07T06:34:16.594Z,16.45
2022-09-07T06:36:20.570Z,16.44
2022-09-07T06:38:22.095Z,16.47
2022-09-07T06:40:23.590Z,16.49
2022-09-07T06:42:25.122Z,16.50
2022-09-07T06:44:26.622Z,16.51
2022-09-07T06:48:56.138Z,16.56
2022-09-07T06:51:00.034Z,16.55
2022-09-07T06:55:23.030Z,16.59
2022-09-07T06:57:24.606Z,16.60
2022-09-07T06:59:26.131Z,16.58
2022-09-07T07:01:29.145Z,16.58
2022-09-07T07:03:30.813Z,16.61
2022-09-07T07:05:32.411Z,16.65
2022-09-07T07:07:34.437Z,16.71
2022-09-07T07:09:35.950Z,16.76
2022-09-07T07:11:37.615Z,16.80
2022-09-07T07:13:40.574Z,16.82
2022-09-07T07:15:42.342Z,16.87
2022-09-07T07:17:43.887Z,16.94
2022-09-07T07:19:45.394Z,16.99
2022-09-07T07:22:10.714Z,17.04
2022-09-07T07:24:08.516Z,17.08
2022-09-07T07:26:19.315Z,17.11
2022-09-07T07:30:47.248Z,17.20
2022-09-07T07:32:48.754Z,17.28
2022-09-07T07:34:50.226Z,17.29
2022-09-07T07:36:51.693Z,17.39
2022-09-07T07:43:21.386Z,17.58
2022-09-07T07:47:49.461Z,17.74
2022-09-07T07:50:30.492Z,17.78
2022-09-07T07:54:37.289Z,17.86
2022-09-07T07:56:38.754Z,17.85
2022-09-07T07:58:43.641Z,17.92
2022-09-07T08:01:00.703Z,17.97
2022-09-07T08:03:02.402Z,18.03
2022-09-07T08:05:04.038Z,18.06
2022-09-07T08:07:10.238Z,18.07
2022-09-07T08:09:12.599Z,18.18
2022-09-07T08:11:19.684Z,18.29
2022-09-07T08:13:21.540Z,18.38
2022-09-07T08:15:23.314Z,18.40
2022-09-07T08:17:24.788Z,18.46
2022-09-07T08:19:26.204Z,18.54
2022-09-07T08:21:27.743Z,18.65
2022-09-07T08:23:31.603Z,18.71
2022-09-07T08:25:34.109Z,18.82
2022-09-07T08:27:36.089Z,18.88
2022-09-07T08:29:37.501Z,18.97
2022-09-07T08:31:38.979Z,19.04
2022-09-07T08:33:41.361Z,19.13
2022-09-07T08:35:43.099Z,19.19
2022-09-07T08:37:44.561Z,19.21
2022-09-07T08:39:46.096Z,19.20
2022-09-07T08:42:15.996Z,19.24
2022-09-07T08:44:42.875Z,19.32
2022-09-07T08:47:07.480Z,19.44
2022-09-07T08:49:21.681Z,19.52
2022-09-07T08:51:36.194Z,19.59
2022-09-07T08:53:45.261Z,19.68
2022-09-07T08:55:55.681Z,19.74
2022-09-07T08:58:04.814Z,19.79
2022-09-07T09:00:11.713Z,19.85
2022-09-07T09:02:35.148Z,19.96
2022-09-07T09:05:16.297Z,20.07
2022-09-07T09:07:29.207Z,20.17
2022-09-07T09:09:36.684Z,20.25
2022-09-07T09:11:48.084Z,20.30
2022-09-07T09:14:06.341Z,20.41
2022-09-07T09:16:34.046Z,20.50
2022-09-07T09:19:00.450Z,20.53
2022-09-07T09:21:02.529Z,20.65
2022-09-07T09:23:13.075Z,20.72
2022-09-07T09:25:22.923Z,20.81
2022-09-07T09:27:24.398Z,20.84
2022-09-07T09:29:25.868Z,20.88
2022-09-07T09:31:35.135Z,21.01
2022-09-07T09:33:36.669Z,21.09
2022-09-07T09:35:39.418Z,21.07
2022-09-07T09:37:42.396Z,21.15
2022-09-07T09:39:44.439Z,21.21
2022-09-07T09:41:46.279Z,21.31
2022-09-07T09:43:55.863Z,21.39
2022-09-07T09:46:13.673Z,21.45
2022-09-07T09:48:35.048Z,21.46
2022-09-07T09:53:02.661Z,21.56
2022-09-07T09:59:04.885Z,21.64
2022-09-07T10:00:23.656Z,21.72
2022-09-07T10:04:55.412Z,21.77
2022-09-07T10:07:09.694Z,21.85
2022-09-07T10:09:18.098Z,21.87
2022-09-07T10:13:59.935Z,21.87
2022-09-07T10:16:05.159Z,21.86
2022-09-07T10:18:09.568Z,21.88
2022-09-07T10:20:17.002Z,21.86
2022-09-07T10:22:37.506Z,21.91
2022-09-07T10:24:39.988Z,21.94
2022-09-07T10:26:44.394Z,21.94
2022-09-07T10:31:24.933Z,21.91
2022-09-07T10:34:25.659Z,21.96
2022-09-07T10:36:24.941Z,21.98
2022-09-07T10:38:30.023Z,22.03
2022-09-07T10:40:35.975Z,22.09
2022-09-07T10:43:20.741Z,22.20
2022-09-07T10:45:27.648Z,22.33
2022-09-07T10:47:55.128Z,22.43
2022-09-07T10:50:22.563Z,22.50
2022-09-07T10:52:42.784Z,22.54
2022-09-07T10:54:44.150Z,22.67
2022-09-07T10:57:07.634Z,22.79
2022-09-07T11:02:18.227Z,23.66
2022-09-07T11:04:55.092Z,24.33
2022-09-07T11:07:24.737Z,24.98
2022-09-07T11:09:48.132Z,25.40
2022-09-07T11:12:05.396Z,25.67
2022-09-07T11:14:16.082Z,26.01
2022-09-07T11:18:51.180Z,26.70
2022-09-07T11:20:56.577Z,27.06
2022-09-07T11:23:10.869Z,27.16
2022-09-07T11:25:29.654Z,27.34
2022-09-07T11:27:38.367Z,27.51
2022-09-07T11:29:48.818Z,27.66
2022-09-07T11:32:07.583Z,27.48
2022-09-07T11:34:29.209Z,27.08
2022-09-07T11:36:44.125Z,26.62
2022-09-07T11:39:19.650Z,26.25
2022-09-07T11:41:24.994Z,26.09
2022-09-07T11:43:41.281Z,25.92
2022-09-07T11:45:51.157Z,25.61
2022-09-07T11:47:59.276Z,25.28
2022-09-07T11:50:00.852Z,25.14
2022-09-07T11:52:11.157Z,25.11
2022-09-07T11:54:18.347Z,25.03
2022-09-07T11:56:45.820Z,24.97
2022-09-07T11:59:02.588Z,24.93
2022-09-07T12:01:25.197Z,24.89
2022-09-07T12:03:32.736Z,24.85
2022-09-07T12:05:52.328Z,24.84
2022-09-07T12:08:02.935Z,24.87
2022-09-07T12:10:16.954Z,24.82
2022-09-07T12:12:21.417Z,24.80
2022-09-07T12:14:59.898Z,24.78
2022-09-07T12:17:16.496Z,24.79
2022-09-07T12:19:28.257Z,24.78
2022-09-07T12:21:32.568Z,24.77
2022-09-07T12:23:34.111Z,24.73
2022-09-07T12:25:35.686Z,24.72
2022-09-07T12:27:38.629Z,24.71
2022-09-07T12:29:45.225Z,24.63
2022-09-07T12:34:32.915Z,24.56
2022-09-07T12:36:34.282Z,24.59
2022-09-07T12:39:17.255Z,24.59
2022-09-07T12:41:41.074Z,24.54
2022-09-07T12:43:51.615Z,24.50
2022-09-07T12:45:55.145Z,24.46
2022-09-07T12:47:59.511Z,24.47
2022-09-07T12:50:28.470Z,24.40
2022-09-07T12:52:47.269Z,24.36
2022-09-07T12:55:28.444Z,24.28
2022-09-07T12:57:51.458Z,24.26
2022-09-07T13:00:12.734Z,24.18
2022-09-07T13:02:35.418Z,24.10
2022-09-07T13:04:59.524Z,24.10
2022-09-07T13:07:16.597Z,24.08
2022-09-07T13:09:38.670Z,24.03
2022-09-07T13:11:40.651Z,24.02
2022-09-07T13:14:08.455Z,24.07
2022-09-07T13:16:16.695Z,24.01
2022-09-07T13:18:28.539Z,24.07
2022-09-07T13:20:33.881Z,24.11
2022-09-07T13:22:39.156Z,24.11
2022-09-07T13:25:18.129Z,24.07
2022-09-07T13:27:36.000Z,24.04
2022-09-07T13:29:52.573Z,24.02
2022-09-07T13:32:09.346Z,23.99
2022-09-07T13:34:32.373Z,23.95
2022-09-07T13:36:38.880Z,23.99
2022-09-07T13:38:42.449Z,23.95
2022-09-07T13:40:47.354Z,23.92
2022-09-07T13:42:50.809Z,23.88
2022-09-07T13:45:05.065Z,23.85
2022-09-07T13:47:38.970Z,23.80
2022-09-07T13:50:02.048Z,23.69
2022-09-07T13:52:33.267Z,23.61
2022-09-07T13:55:08.648Z,23.55
2022-09-07T13:57:28.027Z,23.45
2022-09-07T13:59:33.404Z,23.44
2022-09-07T14:01:35.224Z,23.42
2022-09-07T14:03:48.676Z,23.36
2022-09-07T14:06:13.855Z,23.31
2022-09-07T14:08:29.414Z,23.32
2022-09-07T14:10:30.852Z,23.34
2022-09-07T14:12:32.445Z,23.34
2022-09-07T14:14:33.869Z,23.34
2022-09-07T14:16:36.341Z,23.33
2022-09-07T14:18:39.818Z,23.29
2022-09-07T14:20:46.575Z,23.28
2022-09-07T14:22:53.033Z,23.28
2022-09-07T14:25:01.273Z,23.28
2022-09-07T14:27:04.037Z,23.27
2022-09-07T14:29:05.527Z,23.30
2022-09-07T14:31:15.008Z,23.29
2022-09-07T14:33:17.362Z,23.28
2022-09-07T14:35:22.099Z,23.27
2022-09-07T14:37:24.026Z,23.25
2022-09-07T14:39:27.534Z,23.23
2022-09-07T14:41:32.983Z,23.25
2022-09-07T14:43:37.042Z,23.28
2022-09-07T14:45:38.590Z,23.29
2022-09-07T14:47:40.639Z,23.31
2022-09-07T14:49:43.742Z,23.34
2022-09-07T14:51:45.832Z,23.37
2022-09-07T14:53:51.718Z,23.40
2022-09-07T14:56:02.159Z,23.41
2022-09-07T14:58:15.412Z,23.47
2022-09-07T15:00:46.593Z,23.53
2022-09-07T15:02:48.257Z,23.59
2022-09-07T15:05:15.140Z,23.64
2022-09-07T15:07:39.662Z,23.66
2022-09-07T15:09:41.124Z,23.64
2022-09-07T15:11:42.584Z,23.59
2022-09-07T15:13:45.730Z,23.55
2022-09-07T15:15:57.337Z,23.50
2022-09-07T15:18:07.804Z,23.53
2022-09-07T15:20:36.650Z,23.56
2022-09-07T15:22:38.140Z,23.60
2022-09-07T15:24:39.553Z,23.66
2022-09-07T15:29:12.071Z,23.75
2022-09-07T15:33:37.540Z,23.74
2022-09-07T15:35:38.953Z,23.74
2022-09-07T15:40:02.946Z,23.62
2022-09-07T15:44:28.334Z,23.55
2022-09-07T15:46:30.123Z,23.49
2022-09-07T15:48:31.673Z,23.47
2022-09-07T15:50:33.123Z,23.46
2022-09-07T15:52:34.579Z,23.45
2022-09-07T15:54:39.601Z,23.47
2022-09-07T15:56:44.418Z,23.47
2022-09-07T15:59:05.110Z,23.48
2022-09-07T16:03:28.611Z,23.49
2022-09-07T16:05:31.437Z,23.52
2022-09-07T16:09:55.160Z,23.61
2022-09-07T16:11:56.801Z,23.64
2022-09-07T16:14:03.192Z,23.69
2022-09-07T16:16:06.135Z,23.73
2022-09-07T16:18:07.662Z,23.69
2022-09-07T16:20:09.797Z,23.66
2022-09-07T16:23:13.194Z,23.66
2022-09-07T16:24:34.245Z,23.63
2022-09-07T16:26:35.925Z,23.64
2022-09-07T16:28:43.636Z,23.63
2022-09-07T16:30:45.162Z,23.58
2022-09-07T16:32:46.810Z,23.56
2022-09-07T16:34:49.066Z,23.52
2022-09-07T16:36:50.610Z,23.50
2022-09-07T16:39:00.546Z,23.48
2022-09-07T16:41:02.270Z,23.48
2022-09-07T16:43:03.699Z,23.46
2022-09-07T16:47:27.127Z,23.34
2022-09-07T16:49:28.797Z,23.30
2022-09-07T16:51:30.233Z,23.26
2022-09-07T16:53:34.502Z,23.22
2022-09-07T16:55:36.030Z,23.19
2022-09-07T16:59:58.921Z,23.14
2022-09-07T17:02:00.383Z,23.13
2022-09-07T17:04:05.570Z,23.11
2022-09-07T17:06:13.473Z,23.11
2022-09-07T17:08:14.948Z,23.12
2022-09-07T17:10:16.454Z,23.12
2022-09-07T17:12:17.916Z,23.12
2022-09-07T17:14:19.469Z,23.10
2022-09-07T17:16:24.425Z,23.07
2022-09-07T17:20:58.594Z,23.00
2022-09-07T17:23:01.477Z,22.96
2022-09-07T17:25:03.002Z,22.91
2022-09-07T17:27:04.910Z,22.87
2022-09-07T17:29:07.323Z,22.80
2022-09-07T17:32:23.848Z,22.75
2022-09-07T17:33:36.743Z,22.69
2022-09-07T17:35:38.162Z,22.65
2022-09-07T17:37:39.570Z,22.62
2022-09-07T17:39:41.131Z,22.60
2022-09-07T17:41:42.803Z,22.57
2022-09-07T17:43:45.698Z,22.54
2022-09-07T17:45:55.127Z,22.51
2022-09-07T17:47:56.581Z,22.47
2022-09-07T17:49:57.993Z,22.44
2022-09-07T17:52:00.942Z,22.40
2022-09-07T17:54:12.314Z,22.36
2022-09-07T17:56:16.292Z,22.30
2022-09-07T17:58:18.577Z,22.27
2022-09-07T18:00:20.107Z,22.23
2022-09-07T18:02:21.547Z,22.18
2022-09-07T18:04:23.768Z,22.09
2022-09-07T18:06:28.105Z,22.03
2022-09-07T18:08:30.335Z,21.97
2022-09-07T18:12:56.872Z,21.86
2022-09-07T18:14:58.433Z,21.83
2022-09-07T18:17:00.354Z,21.82
2022-09-07T18:19:07.362Z,21.80
2022-09-07T18:21:33.197Z,21.75
2022-09-07T18:23:35.724Z,21.72
2022-09-07T18:25:37.507Z,21.71
2022-09-07T18:27:39.849Z,21.66
2022-09-07T18:29:41.632Z,21.56
2022-09-07T18:31:43.127Z,21.48
2022-09-07T18:33:44.591Z,21.39
2022-09-07T18:35:46.762Z,21.29
2022-09-07T18:37:48.830Z,21.22
2022-09-07T18:39:51.539Z,21.16
2022-09-07T18:41:56.608Z,21.14
2022-09-07T18:43:58.362Z,21.11
2022-09-07T18:46:13.597Z,21.08
2022-09-07T18:48:15.035Z,21.02
2022-09-07T18:50:17.405Z,20.98
2022-09-07T18:54:42.318Z,20.94
2022-09-07T18:56:44.085Z,20.94
2022-09-07T18:58:47.364Z,20.92
2022-09-07T19:00:53.872Z,20.93
2022-09-07T19:02:55.446Z,20.88
2022-09-07T19:07:20.273Z,20.75
2022-09-07T19:09:21.709Z,20.67
2022-09-07T19:11:24.788Z,20.63
2022-09-07T19:13:26.298Z,20.60
2022-09-07T19:15:27.715Z,20.58
2022-09-07T19:17:29.236Z,20.55
2022-09-07T19:19:30.887Z,20.50
2022-09-07T19:21:38.782Z,20.46
2022-09-07T19:23:40.358Z,20.41
2022-09-07T19:25:42.041Z,20.40
2022-09-07T19:27:43.527Z,20.35
2022-09-07T19:29:44.959Z,20.28
2022-09-07T19:32:11.603Z,20.27
2022-09-07T19:34:13.077Z,20.24
2022-09-07T19:36:14.625Z,20.23
2022-09-07T19:38:16.072Z,20.20
2022-09-07T19:40:19.422Z,20.18
2022-09-07T19:42:22.249Z,20.16
2022-09-07T19:44:23.691Z,20.13
2022-09-07T19:46:25.715Z,20.12
2022-09-07T19:48:27.908Z,20.11
2022-09-07T19:50:30.893Z,20.10
2022-09-07T19:52:32.813Z,20.10
2022-09-07T19:54:34.295Z,20.08
2022-09-07T19:56:40.285Z,20.08
2022-09-07T19:58:43.963Z,20.05
2022-09-07T20:00:45.475Z,20.04
2022-09-07T20:02:49.244Z,20.02
2022-09-07T20:04:50.750Z,19.99
2022-09-07T20:06:52.298Z,19.98
2022-09-07T20:08:55.627Z,19.98
2022-09-07T20:11:02.410Z,19.95
2022-09-07T20:13:04.565Z,19.92
2022-09-07T20:15:06.475Z,19.88
2022-09-07T20:17:07.891Z,19.85
2022-09-07T20:19:11.697Z,19.84
2022-09-07T20:21:16.434Z,19.82
2022-09-07T20:23:17.856Z,19.80
2022-09-07T20:25:19.271Z,19.80
2022-09-07T20:27:20.668Z,19.77
2022-09-07T20:29:29.474Z,19.73
2022-09-07T20:31:31.058Z,19.73
2022-09-07T20:33:32.748Z,19.72
2022-09-07T20:35:34.335Z,19.71
2022-09-07T20:37:35.777Z,19.71
2022-09-07T20:39:39.612Z,19.68
2022-09-07T20:41:41.243Z,19.66
2022-09-07T20:43:42.708Z,19.66
2022-09-07T20:45:44.142Z,19.64
2022-09-07T20:47:45.647Z,19.64
2022-09-07T20:49:48.314Z,19.63
2022-09-07T20:51:49.818Z,19.62
2022-09-07T20:53:51.845Z,19.59
2022-09-07T20:56:14.372Z,19.57
2022-09-07T20:58:16.189Z,19.54
2022-09-07T21:00:17.739Z,19.51
2022-09-07T21:02:19.281Z,19.49
2022-09-07T21:04:20.847Z,19.48
2022-09-07T21:06:23.226Z,19.45
2022-09-07T21:08:24.769Z,19.42
2022-09-07T21:10:26.927Z,19.40
2022-09-07T21:12:28.368Z,19.37
2022-09-07T21:14:29.817Z,19.35
2022-09-07T21:16:31.514Z,19.32
2022-09-07T21:18:34.360Z,19.30
2022-09-07T21:20:35.834Z,19.28
2022-09-07T21:22:37.352Z,19.24
2022-09-07T21:24:38.831Z,19.20
2022-09-07T21:26:40.344Z,19.15
2022-09-07T21:28:41.821Z,19.12
2022-09-07T21:30:43.235Z,19.11
2022-09-07T21:32:44.793Z,19.08
2022-09-07T21:34:46.212Z,19.06
2022-09-07T21:36:47.806Z,19.04
2022-09-07T21:38:50.031Z,19.03
2022-09-07T21:40:51.500Z,19.01
2022-09-07T21:42:53.213Z,18.95
2022-09-07T21:44:54.631Z,18.92
2022-09-07T21:46:56.143Z,18.90
2022-09-07T21:48:58.285Z,18.88
2022-09-07T21:50:59.742Z,18.86
2022-09-07T21:53:01.547Z,18.83
2022-09-07T21:55:03.077Z,18.79
2022-09-07T21:57:04.880Z,18.74
2022-09-07T21:59:06.605Z,18.73
2022-09-07T22:01:13.732Z,18.67
2022-09-07T22:03:15.242Z,18.61
2022-09-07T22:05:16.746Z,18.58
2022-09-07T22:07:18.582Z,18.56
2022-09-07T22:09:20.235Z,18.55
2022-09-07T22:11:23.242Z,18.55
2022-09-07T22:13:24.714Z,18.52
2022-09-07T22:15:26.278Z,18.50
2022-09-07T22:17:27.695Z,18.48
2022-09-07T22:19:29.132Z,18.45
2022-09-07T22:21:31.442Z,18.42
2022-09-07T22:23:34.473Z,18.36
2022-09-07T22:25:36.093Z,18.34
2022-09-07T22:27:37.527Z,18.31
2022-09-07T22:29:38.938Z,18.30
2022-09-07T22:31:41.037Z,18.27
2022-09-07T22:33:43.444Z,18.24
2022-09-07T22:35:44.917Z,18.20
2022-09-07T22:37:46.420Z,18.17
2022-09-07T22:39:47.902Z,18.16
2022-09-07T22:41:49.390Z,18.13
2022-09-07T22:43:51.131Z,18.10
2022-09-07T22:45:52.634Z,18.07
2022-09-07T22:47:54.071Z,18.02
2022-09-07T22:49:55.499Z,18.00
2022-09-07T22:51:56.927Z,17.96
2022-09-07T22:53:58.809Z,17.88
2022-09-07T22:56:05.132Z,17.84
2022-09-07T22:58:06.557Z,17.77
2022-09-07T23:00:09.347Z,17.74
2022-09-07T23:02:10.798Z,17.71
2022-09-07T23:04:13.166Z,17.72
2022-09-07T23:06:41.945Z,17.64
2022-09-07T23:08:43.730Z,17.64
2022-09-07T23:10:45.474Z,17.66
2022-09-07T23:12:46.923Z,17.64
2022-09-07T23:14:48.361Z,17.60
2022-09-07T23:16:50.480Z,17.57
2022-09-07T23:18:53.061Z,17.57
2022-09-07T23:21:00.848Z,17.52
2022-09-07T23:23:02.328Z,17.47
2022-09-07T23:25:04.356Z,17.44
2022-09-07T23:27:06.609Z,17.42
2022-09-07T23:29:11.163Z,17.41
2022-09-07T23:31:12.678Z,17.39
2022-09-07T23:33:14.378Z,17.35
2022-09-07T23:35:16.751Z,17.31
2022-09-07T23:37:18.654Z,17.27
2022-09-07T23:39:20.170Z,17.25
2022-09-07T23:41:21.927Z,17.24
2022-09-07T23:43:24.904Z,17.24
2022-09-07T23:45:27.187Z,17.20
2022-09-07T23:47:28.884Z,17.16
2022-09-07T23:49:30.332Z,17.10
2022-09-07T23:51:31.751Z,17.06
2022-09-07T23:53:33.394Z,17.05
2022-09-07T23:55:34.954Z,17.04
2022-09-07T23:57:37.499Z,17.04
2022-09-07T23:59:38.921Z,17.04
